^^
Saratoga-Weather Station Historical Data
Daily Summary for January 3, 2021 Units:  Both    English   Metric
Daily Weekly Monthly Yearly Custom
  High: Low: Average:
Temperature: 76.5 °F /  24.7 °C 59.5 °F /  15.3 °C 65.8 °F /  18.8 °C
Dew Point: 68.4 °F /  20.2 °C 58.5 °F /  14.7 °C 63 °F /  17.2 °C
Humidity: 97% 68% 91%
Wind Speed: 10.1mph /  16.3km/h - 0.7mph /  1.1km/h
Wind Gust: 13mph /  20.9km/h - -
Wind- - South
Pressure: 30.1 in /  1019.6 hPa 30 in /  1016.3 hPa -
Precipitation: 0.18 in /  4.6 mm    
Historical Graphs
 
 
Tabular Data for January 3, 2021
Time Temperature Dew Point Pressure Wind Wind Speed Wind Gust Humidity Rainfall Rate (Hourly) solar
00:00 61.5 °F /  16.4 °C 60.1 °F /  15.6 °C 30in /  1016.6hPa Calm     95% 0in /  0.0mm 0 W/m2
00:05 61.5 °F /  16.4 °C 60.1 °F /  15.6 °C 30in /  1016.6hPa Calm   1mph /  1.6km/h 95% 0in /  0.0mm 0 W/m2
00:10 61.5 °F /  16.4 °C 60.1 °F /  15.6 °C 30in /  1016.6hPa Calm     95% 0in /  0.0mm 0 W/m2
00:15 61.3 °F /  16.3 °C 59.9 °F /  15.5 °C 30in /  1016.6hPa Calm     95% 0in /  0.0mm 0 W/m2
00:20 61.3 °F /  16.3 °C 59.9 °F /  15.5 °C 30in /  1016.6hPa Calm     95% 0in /  0.0mm 0 W/m2
00:25 61.2 °F /  16.2 °C 59.7 °F /  15.4 °C 30in /  1016.6hPa West 0.9mph /  1.4km/h 2mph /  3.2km/h 95% 0in /  0.0mm 0 W/m2
00:30 61.2 °F /  16.2 °C 59.7 °F /  15.4 °C 30in /  1016.6hPa Calm   1mph /  1.6km/h 95% 0in /  0.0mm 0 W/m2
00:35 61 °F /  16.1 °C 59.5 °F /  15.3 °C 30in /  1016.3hPa Calm   2mph /  3.2km/h 95% 0in /  0.0mm 0 W/m2
00:40 60.8 °F /  16 °C 59.4 °F /  15.2 °C 30in /  1016.3hPa West 0.9mph /  1.4km/h 1mph /  1.6km/h 95% 0in /  0.0mm 0 W/m2
00:45 60.6 °F /  15.9 °C 59.2 °F /  15.1 °C 30in /  1016.6hPa West 0.9mph /  1.4km/h 2mph /  3.2km/h 95% 0in /  0.0mm 0 W/m2
00:50 60.6 °F /  15.9 °C 59.2 °F /  15.1 °C 30in /  1016.6hPa Calm     95% 0in /  0.0mm 0 W/m2
00:55 60.6 °F /  15.9 °C 59.2 °F /  15.1 °C 30in /  1016.6hPa Calm     95% 0in /  0.0mm 0 W/m2
01:01 60.8 °F /  16 °C 59.4 °F /  15.2 °C 30in /  1016.6hPa Calm   2mph /  3.2km/h 95% 0in /  0.0mm 0 W/m2
01:06 61 °F /  16.1 °C 59.5 °F /  15.3 °C 30in /  1016.9hPa Calm   2mph /  3.2km/h 95% 0in /  0.0mm 0 W/m2
01:11 61 °F /  16.1 °C 59.5 °F /  15.3 °C 30in /  1016.9hPa West 0.9mph /  1.4km/h 1mph /  1.6km/h 95% 0in /  0.0mm 0 W/m2
01:16 61 °F /  16.1 °C 59.5 °F /  15.3 °C 30in /  1016.9hPa Calm   1mph /  1.6km/h 95% 0in /  0.0mm 0 W/m2
01:21 61 °F /  16.1 °C 59.5 °F /  15.3 °C 30in /  1016.9hPa Calm     95% 0in /  0.0mm 0 W/m2
01:26 61 °F /  16.1 °C 59.9 °F /  15.5 °C 30in /  1016.9hPa Calm     96% 0in /  0.0mm 0 W/m2
01:31 61 °F /  16.1 °C 59.9 °F /  15.5 °C 30in /  1016.9hPa Calm     96% 0in /  0.0mm 0 W/m2
01:36 61.2 °F /  16.2 °C 60.1 °F /  15.6 °C 30in /  1016.9hPa Calm     96% 0in /  0.0mm 0 W/m2
01:41 61.2 °F /  16.2 °C 60.1 °F /  15.6 °C 30in /  1016.9hPa Calm     96% 0in /  0.0mm 0 W/m2
01:46 61.2 °F /  16.2 °C 60.1 °F /  15.6 °C 30in /  1016.9hPa Calm     96% 0in /  0.0mm 0 W/m2
01:51 61.2 °F /  16.2 °C 60.1 °F /  15.6 °C 30in /  1016.9hPa Calm     96% 0in /  0.0mm 0 W/m2
01:56 61.2 °F /  16.2 °C 60.1 °F /  15.6 °C 30in /  1016.9hPa Calm     96% 0in /  0.0mm 0 W/m2
02:01 61.2 °F /  16.2 °C 60.1 °F /  15.6 °C 30in /  1016.9hPa Calm     96% 0in /  0.0mm 0 W/m2
02:06 61 °F /  16.1 °C 59.9 °F /  15.5 °C 30in /  1016.9hPa Calm     96% 0in /  0.0mm 0 W/m2
02:11 61 °F /  16.1 °C 59.9 °F /  15.5 °C 30in /  1016.9hPa Calm     96% 0in /  0.0mm 0 W/m2
02:16 60.8 °F /  16 °C 59.7 °F /  15.4 °C 30in /  1016.9hPa Calm     96% 0in /  0.0mm 0 W/m2
02:21 60.8 °F /  16 °C 59.7 °F /  15.4 °C 30in /  1016.9hPa Calm     96% 0in /  0.0mm 0 W/m2
02:26 60.8 °F /  16 °C 59.7 °F /  15.4 °C 30in /  1017.3hPa Calm     96% 0in /  0.0mm 0 W/m2
02:31 60.6 °F /  15.9 °C 59.5 °F /  15.3 °C 30in /  1016.9hPa Calm     96% 0in /  0.0mm 0 W/m2
02:36 60.6 °F /  15.9 °C 59.5 °F /  15.3 °C 30in /  1016.9hPa Calm     96% 0in /  0.0mm 0 W/m2
02:41 60.6 °F /  15.9 °C 59.5 °F /  15.3 °C 30in /  1016.9hPa Calm     96% 0in /  0.0mm 0 W/m2
02:46 60.6 °F /  15.9 °C 59.5 °F /  15.3 °C 30in /  1016.9hPa Calm     96% 0in /  0.0mm 0 W/m2
02:51 60.6 °F /  15.9 °C 59.5 °F /  15.3 °C 30in /  1016.9hPa Calm     96% 0in /  0.0mm 0 W/m2
02:56 60.6 °F /  15.9 °C 59.5 °F /  15.3 °C 30in /  1016.9hPa Calm     96% 0in /  0.0mm 0 W/m2
03:01 60.6 °F /  15.9 °C 59.5 °F /  15.3 °C 30in /  1016.9hPa Calm     96% 0in /  0.0mm 0 W/m2
03:06 60.4 °F /  15.8 °C 59.4 °F /  15.2 °C 30in /  1017.3hPa Calm     96% 0in /  0.0mm 0 W/m2
03:11 60.4 °F /  15.8 °C 59.4 °F /  15.2 °C 30in /  1017.3hPa Calm     96% 0in /  0.0mm 0 W/m2
03:16 60.4 °F /  15.8 °C 59.4 °F /  15.2 °C 30in /  1017.3hPa Calm     96% 0in /  0.0mm 0 W/m2
03:21 60.4 °F /  15.8 °C 59.4 °F /  15.2 °C 30in /  1016.9hPa West 0.9mph /  1.4km/h 2mph /  3.2km/h 96% 0in /  0.0mm 0 W/m2
03:26 60.3 °F /  15.7 °C 59.2 °F /  15.1 °C 30in /  1016.9hPa Calm     96% 0in /  0.0mm 0 W/m2
03:31 60.3 °F /  15.7 °C 59.2 °F /  15.1 °C 30in /  1017.3hPa West 2mph /  3.2km/h 2mph /  3.2km/h 96% 0in /  0.0mm 0 W/m2
03:36 60.3 °F /  15.7 °C 59.2 °F /  15.1 °C 30in /  1016.9hPa Calm     96% 0in /  0.0mm 0 W/m2
03:41 60.1 °F /  15.6 °C 59 °F /  15 °C 30in /  1017.3hPa Calm     96% 0in /  0.0mm 0 W/m2
03:46 60.1 °F /  15.6 °C 59 °F /  15 °C 30in /  1017.3hPa Calm     96% 0in /  0.0mm 0 W/m2
03:51 60.1 °F /  15.6 °C 59 °F /  15 °C 30in /  1017.3hPa Calm   1mph /  1.6km/h 96% 0in /  0.0mm 0 W/m2
03:56 59.9 °F /  15.5 °C 58.8 °F /  14.9 °C 30in /  1017.3hPa Calm     96% 0in /  0.0mm 0 W/m2
04:01 59.9 °F /  15.5 °C 58.8 °F /  14.9 °C 30in /  1017.3hPa Calm     96% 0in /  0.0mm 0 W/m2
04:06 59.7 °F /  15.4 °C 58.6 °F /  14.8 °C 30in /  1017.3hPa Calm     96% 0in /  0.0mm 0 W/m2
04:11 59.7 °F /  15.4 °C 58.6 °F /  14.8 °C 30in /  1017.3hPa Calm     96% 0in /  0.0mm 0 W/m2
04:16 59.7 °F /  15.4 °C 58.6 °F /  14.8 °C 30in /  1017.3hPa Calm     96% 0in /  0.0mm 0 W/m2
04:21 59.7 °F /  15.4 °C 58.6 °F /  14.8 °C 30in /  1017.3hPa Calm   1mph /  1.6km/h 96% 0in /  0.0mm 0 W/m2
04:26 59.5 °F /  15.3 °C 58.5 °F /  14.7 °C 30in /  1017.3hPa Calm   1mph /  1.6km/h 96% 0in /  0.0mm 0 W/m2
04:32 59.5 °F /  15.3 °C 58.5 °F /  14.7 °C 30in /  1017.3hPa Calm     96% 0in /  0.0mm 0 W/m2
04:37 59.5 °F /  15.3 °C 58.5 °F /  14.7 °C 30in /  1017.3hPa Calm     96% 0in /  0.0mm 0 W/m2
04:42 59.5 °F /  15.3 °C 58.5 °F /  14.7 °C 30in /  1017.3hPa Calm     96% 0in /  0.0mm 0 W/m2
04:47 59.5 °F /  15.3 °C 58.5 °F /  14.7 °C 30in /  1017.3hPa Calm     96% 0in /  0.0mm 0 W/m2
04:52 59.5 °F /  15.3 °C 58.5 °F /  14.7 °C 30in /  1017.3hPa Calm     96% 0in /  0.0mm 0 W/m2
04:57 59.5 °F /  15.3 °C 58.5 °F /  14.7 °C 30in /  1017.3hPa Calm     96% 0in /  0.0mm 0 W/m2
05:02 59.5 °F /  15.3 °C 58.5 °F /  14.7 °C 30in /  1017.3hPa Calm     96% 0in /  0.0mm 0 W/m2
05:07 59.5 °F /  15.3 °C 58.5 °F /  14.7 °C 30in /  1017.3hPa Calm     96% 0in /  0.0mm 0 W/m2
05:12 59.5 °F /  15.3 °C 58.5 °F /  14.7 °C 30.1in /  1017.6hPa Calm     96% 0in /  0.0mm 0 W/m2
05:17 59.7 °F /  15.4 °C 58.6 °F /  14.8 °C 30.1in /  1017.6hPa Calm     96% 0in /  0.0mm 0 W/m2
05:22 59.5 °F /  15.3 °C 58.5 °F /  14.7 °C 30.1in /  1017.6hPa Calm     96% 0in /  0.0mm 0 W/m2
05:27 59.7 °F /  15.4 °C 58.6 °F /  14.8 °C 30in /  1017.3hPa Calm     96% 0in /  0.0mm 0 W/m2
05:32 59.7 °F /  15.4 °C 58.6 °F /  14.8 °C 30.1in /  1017.6hPa Calm     96% 0in /  0.0mm 0 W/m2
05:37 59.7 °F /  15.4 °C 58.6 °F /  14.8 °C 30.1in /  1017.6hPa Calm     96% 0in /  0.0mm 0 W/m2
05:42 59.7 °F /  15.4 °C 58.6 °F /  14.8 °C 30.1in /  1017.6hPa Calm     96% 0in /  0.0mm 0 W/m2
05:47 59.7 °F /  15.4 °C 58.6 °F /  14.8 °C 30.1in /  1017.6hPa Calm     96% 0in /  0.0mm 0 W/m2
05:52 59.7 °F /  15.4 °C 58.6 °F /  14.8 °C 30.1in /  1017.6hPa Calm     96% 0in /  0.0mm 5 W/m2
05:57 59.7 °F /  15.4 °C 58.6 °F /  14.8 °C 30.1in /  1017.6hPa Calm     96% 0in /  0.0mm 5 W/m2
06:02 59.7 °F /  15.4 °C 58.6 °F /  14.8 °C 30.1in /  1017.6hPa Calm     96% 0in /  0.0mm 5 W/m2
06:07 59.7 °F /  15.4 °C 58.6 °F /  14.8 °C 30.1in /  1017.6hPa Calm     96% 0in /  0.0mm 7 W/m2
06:12 59.7 °F /  15.4 °C 58.6 °F /  14.8 °C 30.1in /  1018.0hPa Calm     96% 0in /  0.0mm 7 W/m2
06:17 59.9 °F /  15.5 °C 58.8 °F /  14.9 °C 30.1in /  1018.0hPa Calm     96% 0in /  0.0mm 9 W/m2
06:22 59.9 °F /  15.5 °C 59 °F /  15 °C 30.1in /  1018.0hPa Calm     97% 0in /  0.0mm 11 W/m2
06:27 60.1 °F /  15.6 °C 59.2 °F /  15.1 °C 30.1in /  1018.0hPa Calm     97% 0in /  0.0mm 12 W/m2
06:32 60.1 °F /  15.6 °C 59.2 °F /  15.1 °C 30.1in /  1018.0hPa Calm     97% 0in /  0.0mm 16 W/m2
06:37 60.1 °F /  15.6 °C 59.2 °F /  15.1 °C 30.1in /  1018.0hPa Calm     97% 0in /  0.0mm 19 W/m2
06:42 60.3 °F /  15.7 °C 59.4 °F /  15.2 °C 30.1in /  1018.0hPa Calm     97% 0in /  0.0mm 19 W/m2
06:47 60.3 °F /  15.7 °C 59.4 °F /  15.2 °C 30.1in /  1018.0hPa Calm     97% 0in /  0.0mm 21 W/m2
06:52 60.3 °F /  15.7 °C 59.4 °F /  15.2 °C 30.1in /  1018.0hPa Calm     97% 0in /  0.0mm 25 W/m2
06:57 60.3 °F /  15.7 °C 59.4 °F /  15.2 °C 30.1in /  1018.0hPa Calm     97% 0in /  0.0mm 28 W/m2
07:02 60.3 °F /  15.7 °C 59.4 °F /  15.2 °C 30.1in /  1018.0hPa Calm     97% 0in /  0.0mm 32 W/m2
07:07 60.4 °F /  15.8 °C 59.5 °F /  15.3 °C 30.1in /  1018.0hPa Calm     97% 0in /  0.0mm 35 W/m2
07:12 60.4 °F /  15.8 °C 59.5 °F /  15.3 °C 30.1in /  1018.3hPa Calm     97% 0in /  0.0mm 39 W/m2
07:17 60.6 °F /  15.9 °C 59.7 °F /  15.4 °C 30.1in /  1018.3hPa Calm     97% 0in /  0.0mm 44 W/m2
07:22 60.6 °F /  15.9 °C 59.7 °F /  15.4 °C 30.1in /  1018.3hPa Calm     97% 0in /  0.0mm 51 W/m2
07:27 60.8 °F /  16 °C 59.9 °F /  15.5 °C 30.1in /  1018.3hPa Calm     97% 0in /  0.0mm 54 W/m2
07:32 60.8 °F /  16 °C 59.9 °F /  15.5 °C 30.1in /  1018.3hPa Calm     97% 0in /  0.0mm 53 W/m2
07:37 61 °F /  16.1 °C 60.1 °F /  15.6 °C 30.1in /  1018.6hPa Calm     97% 0in /  0.0mm 53 W/m2
07:42 61 °F /  16.1 °C 60.1 °F /  15.6 °C 30.1in /  1018.6hPa Calm   1mph /  1.6km/h 97% 0in /  0.0mm 56 W/m2
07:47 61.2 °F /  16.2 °C 60.1 °F /  15.6 °C 30.1in /  1018.6hPa Calm     96% 0in /  0.0mm 60 W/m2
07:52 61.2 °F /  16.2 °C 60.3 °F /  15.7 °C 30.1in /  1018.6hPa Calm   1mph /  1.6km/h 97% 0in /  0.0mm 62 W/m2
07:57 61.3 °F /  16.3 °C 60.4 °F /  15.8 °C 30.1in /  1018.6hPa Calm     97% 0in /  0.0mm 60 W/m2
08:02 61.3 °F /  16.3 °C 60.4 °F /  15.8 °C 30.1in /  1018.6hPa Calm   1mph /  1.6km/h 97% 0in /  0.0mm 49 W/m2
08:07 61.3 °F /  16.3 °C 60.3 °F /  15.7 °C 30.1in /  1018.6hPa Calm     96% 0in /  0.0mm 53 W/m2
08:12 61.5 °F /  16.4 °C 60.4 °F /  15.8 °C 30.1in /  1019.0hPa Calm     96% 0in /  0.0mm 62 W/m2
08:17 61.5 °F /  16.4 °C 60.4 °F /  15.8 °C 30.1in /  1019.0hPa Calm     96% 0in /  0.0mm 58 W/m2
08:22 61.7 °F /  16.5 °C 60.6 °F /  15.9 °C 30.1in /  1019.0hPa Calm     96% 0in /  0.0mm 62 W/m2
08:27 61.9 °F /  16.6 °C 60.8 °F /  16 °C 30.1in /  1019.0hPa Calm     96% 0in /  0.0mm 56 W/m2
08:32 61.9 °F /  16.6 °C 60.8 °F /  16 °C 30.1in /  1019.0hPa Calm     96% 0in /  0.0mm 62 W/m2
08:37 62.1 °F /  16.7 °C 60.6 °F /  15.9 °C 30.1in /  1019.0hPa Calm   1mph /  1.6km/h 95% 0in /  0.0mm 67 W/m2
08:42 62.2 °F /  16.8 °C 60.8 °F /  16 °C 30.1in /  1019.0hPa Calm     95% 0in /  0.0mm 63 W/m2
08:47 62.4 °F /  16.9 °C 61 °F /  16.1 °C 30.1in /  1019.0hPa Calm     95% 0in /  0.0mm 63 W/m2
08:52 62.4 °F /  16.9 °C 61 °F /  16.1 °C 30.1in /  1019.0hPa Calm     95% 0.01in /  0.2mm 76 W/m2
08:57 62.8 °F /  17.1 °C 61.3 °F /  16.3 °C 30.1in /  1019.0hPa Calm     95% 0.01in /  0.2mm 84 W/m2
09:02 62.8 °F /  17.1 °C 61.3 °F /  16.3 °C 30.1in /  1019.3hPa Calm     95% 0.02in /  0.5mm 93 W/m2
09:08 63 °F /  17.2 °C 61.2 °F /  16.2 °C 30.1in /  1019.3hPa Calm     94% 0.02in /  0.5mm 104 W/m2
09:13 63 °F /  17.2 °C 61.2 °F /  16.2 °C 30.1in /  1019.3hPa Calm     94% 0.02in /  0.5mm 114 W/m2
09:18 63.1 °F /  17.3 °C 61.3 °F /  16.3 °C 30.1in /  1019.3hPa Calm     94% 0.02in /  0.5mm 118 W/m2
09:23 63.3 °F /  17.4 °C 61.5 °F /  16.4 °C 30.1in /  1019.3hPa Calm     94% 0.02in /  0.5mm 125 W/m2
09:28 63.3 °F /  17.4 °C 61.5 °F /  16.4 °C 30.1in /  1019.3hPa Calm     94% 0.03in /  0.8mm 123 W/m2
09:33 63.5 °F /  17.5 °C 61.7 °F /  16.5 °C 30.1in /  1019.3hPa Calm   1mph /  1.6km/h 94% 0.03in /  0.8mm 121 W/m2
09:38 63.7 °F /  17.6 °C 61.9 °F /  16.6 °C 30.1in /  1019.0hPa Calm     94% 0.04in /  1.0mm 120 W/m2
09:43 63.7 °F /  17.6 °C 61.9 °F /  16.6 °C 30.1in /  1019.3hPa Calm     94% 0.04in /  1.0mm 125 W/m2
09:48 63.9 °F /  17.7 °C 62.1 °F /  16.7 °C 30.1in /  1019.3hPa Calm     94% 0.04in /  1.0mm 142 W/m2
09:53 64 °F /  17.8 °C 62.2 °F /  16.8 °C 30.1in /  1019.3hPa Calm     94% 0.03in /  0.8mm 160 W/m2
09:58 64.2 °F /  17.9 °C 62.4 °F /  16.9 °C 30.1in /  1019.3hPa Calm     94% 0.03in /  0.8mm 167 W/m2
10:03 64.2 °F /  17.9 °C 62.2 °F /  16.8 °C 30.1in /  1019.6hPa East 2mph /  3.2km/h 2mph /  3.2km/h 93% 0.02in /  0.5mm 193 W/m2
10:08 64.4 °F /  18 °C 62.4 °F /  16.9 °C 30.1in /  1019.6hPa Calm   1mph /  1.6km/h 93% 0.02in /  0.5mm 193 W/m2
10:13 64.6 °F /  18.1 °C 62.4 °F /  16.9 °C 30.1in /  1019.6hPa Calm     93% 0.02in /  0.5mm 218 W/m2
10:18 64.8 °F /  18.2 °C 62.4 °F /  16.9 °C 30.1in /  1019.6hPa Calm     92% 0.02in /  0.5mm 232 W/m2
10:23 65.1 °F /  18.4 °C 63 °F /  17.2 °C 30.1in /  1019.6hPa East 2.9mph /  4.7km/h 3mph /  4.8km/h 93% 0.02in /  0.5mm 251 W/m2
10:28 65.3 °F /  18.5 °C 63 °F /  17.2 °C 30.1in /  1019.6hPa Calm   2mph /  3.2km/h 92% 0.01in /  0.2mm 258 W/m2
10:33 65.5 °F /  18.6 °C 63.1 °F /  17.3 °C 30.1in /  1019.3hPa Calm   2mph /  3.2km/h 92% 0.01in /  0.2mm 255 W/m2
10:38 65.8 °F /  18.8 °C 63.5 °F /  17.5 °C 30.1in /  1019.3hPa NE 2.9mph /  4.7km/h 4mph /  6.4km/h 92% 0in /  0.0mm 258 W/m2
10:43 65.8 °F /  18.8 °C 63.5 °F /  17.5 °C 30.1in /  1019.6hPa Calm   2mph /  3.2km/h 92% 0in /  0.0mm 329 W/m2
10:48 66.2 °F /  19 °C 63.9 °F /  17.7 °C 30.1in /  1019.3hPa ESE 0.9mph /  1.4km/h 4mph /  6.4km/h 92% 0in /  0.0mm 302 W/m2
10:53 66.6 °F /  19.2 °C 64.2 °F /  17.9 °C 30.1in /  1019.3hPa East 0.9mph /  1.4km/h 3mph /  4.8km/h 92% 0in /  0.0mm 322 W/m2
10:58 66.7 °F /  19.3 °C 64 °F /  17.8 °C 30.1in /  1019.6hPa ENE 0.9mph /  1.4km/h 3mph /  4.8km/h 91% 0in /  0.0mm 520 W/m2
11:03 67.5 °F /  19.7 °C 65.1 °F /  18.4 °C 30.1in /  1019.6hPa ENE 2.9mph /  4.7km/h 3mph /  4.8km/h 92% 0in /  0.0mm 257 W/m2
11:08 67.5 °F /  19.7 °C 64.4 °F /  18 °C 30.1in /  1019.6hPa NNE 0.9mph /  1.4km/h 2mph /  3.2km/h 90% 0in /  0.0mm 281 W/m2
11:13 67.6 °F /  19.8 °C 64.6 °F /  18.1 °C 30.1in /  1019.6hPa Calm   2mph /  3.2km/h 90% 0in /  0.0mm 330 W/m2
11:18 67.6 °F /  19.8 °C 64.6 °F /  18.1 °C 30.1in /  1019.6hPa Calm   3mph /  4.8km/h 90% 0in /  0.0mm 415 W/m2
11:23 67.6 °F /  19.8 °C 64.6 °F /  18.1 °C 30.1in /  1019.6hPa ENE 4mph /  6.4km/h 4mph /  6.4km/h 90% 0in /  0.0mm 387 W/m2
11:28 67.5 °F /  19.7 °C 64 °F /  17.8 °C 30.1in /  1019.6hPa ESE 2mph /  3.2km/h 3mph /  4.8km/h 89% 0in /  0.0mm 345 W/m2
11:33 67.5 °F /  19.7 °C 64 °F /  17.8 °C 30.1in /  1019.6hPa East 2.9mph /  4.7km/h 4mph /  6.4km/h 89% 0in /  0.0mm 309 W/m2
11:38 67.5 °F /  19.7 °C 64 °F /  17.8 °C 30.1in /  1019.6hPa Calm   3mph /  4.8km/h 89% 0in /  0.0mm 299 W/m2
11:43 67.6 °F /  19.8 °C 64.6 °F /  18.1 °C 30.1in /  1019.6hPa East 2mph /  3.2km/h 4mph /  6.4km/h 90% 0in /  0.0mm 279 W/m2
11:48 67.5 °F /  19.7 °C 63.9 °F /  17.7 °C 30.1in /  1019.6hPa East 0.9mph /  1.4km/h 4mph /  6.4km/h 88% 0in /  0.0mm 271 W/m2
11:53 67.5 °F /  19.7 °C 64 °F /  17.8 °C 30.1in /  1019.6hPa SE 2mph /  3.2km/h 4mph /  6.4km/h 89% 0in /  0.0mm 288 W/m2
11:58 67.5 °F /  19.7 °C 64.4 °F /  18 °C 30.1in /  1019.6hPa Calm   2mph /  3.2km/h 90% 0in /  0.0mm 306 W/m2
12:03 67.8 °F /  19.9 °C 64.8 °F /  18.2 °C 30.1in /  1019.6hPa East 0.9mph /  1.4km/h 3mph /  4.8km/h 90% 0in /  0.0mm 338 W/m2
12:08 68.2 °F /  20.1 °C 64.8 °F /  18.2 °C 30.1in /  1019.6hPa ESE 2.9mph /  4.7km/h 3mph /  4.8km/h 89% 0in /  0.0mm 387 W/m2
12:13 68.4 °F /  20.2 °C 64.9 °F /  18.3 °C 30.1in /  1019.6hPa ENE 0.9mph /  1.4km/h 6mph /  9.7km/h 89% 0in /  0.0mm 399 W/m2
12:18 68.7 °F /  20.4 °C 64.9 °F /  18.3 °C 30.1in /  1019.3hPa NE 0.9mph /  1.4km/h 2mph /  3.2km/h 88% 0in /  0.0mm 427 W/m2
12:23 69.1 °F /  20.6 °C 65.1 °F /  18.4 °C 30.1in /  1019.3hPa ESE 2mph /  3.2km/h 3mph /  4.8km/h 87% 0in /  0.0mm 450 W/m2
12:28 69.4 °F /  20.8 °C 66 °F /  18.9 °C 30.1in /  1019.3hPa East 2mph /  3.2km/h 3mph /  4.8km/h 89% 0in /  0.0mm 563 W/m2
12:33 69.8 °F /  21 °C 65.5 °F /  18.6 °C 30.1in /  1019.3hPa ESE 2.9mph /  4.7km/h 3mph /  4.8km/h 86% 0in /  0.0mm 758 W/m2
12:38 70.3 °F /  21.3 °C 66 °F /  18.9 °C 30.1in /  1019.3hPa Calm   1mph /  1.6km/h 86% 0in /  0.0mm 536 W/m2
12:43 70.9 °F /  21.6 °C 65.8 °F /  18.8 °C 30.1in /  1019.3hPa SE 0.9mph /  1.4km/h 1mph /  1.6km/h 84% 0in /  0.0mm 464 W/m2
12:48 71.1 °F /  21.7 °C 66 °F /  18.9 °C 30.1in /  1019.3hPa East 2mph /  3.2km/h 4mph /  6.4km/h 84% 0in /  0.0mm 480 W/m2
12:53 71.1 °F /  21.7 °C 65.7 °F /  18.7 °C 30.1in /  1019.3hPa ENE 2mph /  3.2km/h 4mph /  6.4km/h 83% 0in /  0.0mm 635 W/m2
12:58 71.6 °F /  22 °C 66.6 °F /  19.2 °C 30.1in /  1019.3hPa NNE 0.9mph /  1.4km/h 2mph /  3.2km/h 84% 0in /  0.0mm 838 W/m2
13:03 72.3 °F /  22.4 °C 66.6 °F /  19.2 °C 30.1in /  1019.3hPa ESE 0.9mph /  1.4km/h 4mph /  6.4km/h 82% 0in /  0.0mm 1134 W/m2
13:08 72.9 °F /  22.7 °C 66.4 °F /  19.1 °C 30.1in /  1019.3hPa Calm   4mph /  6.4km/h 80% 0in /  0.0mm 870 W/m2
13:13 73 °F /  22.8 °C 66.6 °F /  19.2 °C 30.1in /  1019.3hPa SE 2.9mph /  4.7km/h 5mph /  8km/h 80% 0in /  0.0mm 671 W/m2
13:18 73.2 °F /  22.9 °C 66 °F /  18.9 °C 30.1in /  1019.0hPa NE 4mph /  6.4km/h 5mph /  8km/h 78% 0in /  0.0mm 946 W/m2
13:23 73.4 °F /  23 °C 65.7 °F /  18.7 °C 30.1in /  1019.0hPa ENE 6mph /  9.7km/h 7mph /  11.3km/h 77% 0in /  0.0mm 963 W/m2
13:28 73.2 °F /  22.9 °C 66.4 °F /  19.1 °C 30.1in /  1019.0hPa ENE 2.9mph /  4.7km/h 5mph /  8km/h 79% 0in /  0.0mm 937 W/m2
13:33 73.4 °F /  23 °C 66.9 °F /  19.4 °C 30.1in /  1019.0hPa ENE 2.9mph /  4.7km/h 4mph /  6.4km/h 80% 0in /  0.0mm 953 W/m2
13:38 73.9 °F /  23.3 °C 67.5 °F /  19.7 °C 30.1in /  1019.0hPa ENE 4mph /  6.4km/h 5mph /  8km/h 80% 0in /  0.0mm 1020 W/m2
13:43 74.3 °F /  23.5 °C 66.6 °F /  19.2 °C 30.1in /  1019.0hPa East 2mph /  3.2km/h 3mph /  4.8km/h 77% 0in /  0.0mm 821 W/m2
13:48 74.5 °F /  23.6 °C 66.7 °F /  19.3 °C 30.1in /  1019.0hPa ENE 0.9mph /  1.4km/h 5mph /  8km/h 77% 0in /  0.0mm 817 W/m2
13:53 74.7 °F /  23.7 °C 66.2 °F /  19 °C 30.1in /  1019.0hPa ESE 0.9mph /  1.4km/h 7mph /  11.3km/h 75% 0in /  0.0mm 737 W/m2
13:58 75 °F /  23.9 °C 66.6 °F /  19.2 °C 30.1in /  1019.0hPa East 0.9mph /  1.4km/h 5mph /  8km/h 75% 0in /  0.0mm 977 W/m2
14:03 75.7 °F /  24.3 °C 67.6 °F /  19.8 °C 30.1in /  1018.6hPa NE 2mph /  3.2km/h 7mph /  11.3km/h 76% 0in /  0.0mm 1039 W/m2
14:08 76.1 °F /  24.5 °C 67.3 °F /  19.6 °C 30.1in /  1018.6hPa East 4mph /  6.4km/h 7mph /  11.3km/h 74% 0in /  0.0mm 997 W/m2
14:13 76.5 °F /  24.7 °C 67.6 °F /  19.8 °C 30.1in /  1018.6hPa East 2.9mph /  4.7km/h 7mph /  11.3km/h 74% 0in /  0.0mm 1014 W/m2
14:18 76.5 °F /  24.7 °C 66.7 °F /  19.3 °C 30.1in /  1018.6hPa ENE 2.9mph /  4.7km/h 6mph /  9.7km/h 72% 0in /  0.0mm 937 W/m2
14:23 76.5 °F /  24.7 °C 67.1 °F /  19.5 °C 30.1in /  1018.6hPa East 6mph /  9.7km/h 6mph /  9.7km/h 73% 0in /  0.0mm 972 W/m2
14:28 76.3 °F /  24.6 °C 66.2 °F /  19 °C 30.1in /  1018.6hPa Calm   2mph /  3.2km/h 71% 0in /  0.0mm 313 W/m2
14:33 76.1 °F /  24.5 °C 66 °F /  18.9 °C 30.1in /  1018.6hPa East 0.9mph /  1.4km/h 1mph /  1.6km/h 71% 0in /  0.0mm 214 W/m2
14:38 75.9 °F /  24.4 °C 66.2 °F /  19 °C 30.1in /  1018.6hPa SSE 0.9mph /  1.4km/h 2mph /  3.2km/h 72% 0in /  0.0mm 234 W/m2
14:43 75.7 °F /  24.3 °C 66.4 °F /  19.1 °C 30.1in /  1018.6hPa Calm   2mph /  3.2km/h 73% 0in /  0.0mm 200 W/m2
14:48 75.6 °F /  24.2 °C 66.7 °F /  19.3 °C 30.1in /  1018.6hPa ESE 4mph /  6.4km/h 6mph /  9.7km/h 74% 0in /  0.0mm 232 W/m2
14:53 75.4 °F /  24.1 °C 66.2 °F /  19 °C 30.1in /  1018.6hPa ESE 0.9mph /  1.4km/h 3mph /  4.8km/h 73% 0in /  0.0mm 404 W/m2
14:58 75.4 °F /  24.1 °C 65.3 °F /  18.5 °C 30.1in /  1018.6hPa Calm   3mph /  4.8km/h 71% 0in /  0.0mm 403 W/m2
15:03 75.7 °F /  24.3 °C 66 °F /  18.9 °C 30.1in /  1018.6hPa SW 2mph /  3.2km/h 7mph /  11.3km/h 72% 0in /  0.0mm 508 W/m2
15:08 75.7 °F /  24.3 °C 64.8 °F /  18.2 °C 30.1in /  1018.6hPa WSW 2.9mph /  4.7km/h 6mph /  9.7km/h 69% 0in /  0.0mm 439 W/m2
15:13 75.6 °F /  24.2 °C 65.5 °F /  18.6 °C 30.1in /  1018.6hPa West 2.9mph /  4.7km/h 7mph /  11.3km/h 71% 0in /  0.0mm 346 W/m2
15:18 75.2 °F /  24 °C 65.1 °F /  18.4 °C 30.1in /  1018.6hPa WNW 2mph /  3.2km/h 4mph /  6.4km/h 71% 0in /  0.0mm 371 W/m2
15:23 75.4 °F /  24.1 °C 66.2 °F /  19 °C 30.1in /  1018.6hPa WSW 2mph /  3.2km/h 2mph /  3.2km/h 73% 0in /  0.0mm 341 W/m2
15:29 75.4 °F /  24.1 °C 64.6 °F /  18.1 °C 30.1in /  1018.6hPa WNW 2mph /  3.2km/h 6mph /  9.7km/h 69% 0in /  0.0mm 322 W/m2
15:34 75.4 °F /  24.1 °C 64.9 °F /  18.3 °C 30.1in /  1018.6hPa Calm   2mph /  3.2km/h 70% 0in /  0.0mm 322 W/m2
15:39 75.4 °F /  24.1 °C 64 °F /  17.8 °C 30.1in /  1018.6hPa NW 0.9mph /  1.4km/h 3mph /  4.8km/h 68% 0in /  0.0mm 318 W/m2
15:44 75.6 °F /  24.2 °C 65.5 °F /  18.6 °C 30.1in /  1018.6hPa Calm   2mph /  3.2km/h 71% 0in /  0.0mm 381 W/m2
15:49 75.7 °F /  24.3 °C 64.8 °F /  18.2 °C 30.1in /  1018.6hPa Calm   4mph /  6.4km/h 69% 0in /  0.0mm 408 W/m2
15:54 76.1 °F /  24.5 °C 65.1 °F /  18.4 °C 30.1in /  1018.6hPa Calm   2mph /  3.2km/h 69% 0in /  0.0mm 376 W/m2
15:59 76.3 °F /  24.6 °C 64.9 °F /  18.3 °C 30.1in /  1018.6hPa West 2mph /  3.2km/h 4mph /  6.4km/h 68% 0in /  0.0mm 288 W/m2
16:04 76.5 °F /  24.7 °C 65.1 °F /  18.4 °C 30.1in /  1018.6hPa West 2mph /  3.2km/h 6mph /  9.7km/h 68% 0in /  0.0mm 197 W/m2
16:09 76.3 °F /  24.6 °C 65.8 °F /  18.8 °C 30.1in /  1018.6hPa West 0.9mph /  1.4km/h 3mph /  4.8km/h 70% 0in /  0.0mm 144 W/m2
16:14 75.9 °F /  24.4 °C 64.9 °F /  18.3 °C 30.1in /  1019.0hPa West 6.9mph /  11.1km/h 7mph /  11.3km/h 69% 0in /  0.0mm 98 W/m2
16:19 75.4 °F /  24.1 °C 66.9 °F /  19.4 °C 30.1in /  1019.0hPa Calm   2mph /  3.2km/h 75% 0.02in /  0.5mm 79 W/m2
16:24 73 °F /  22.8 °C 65.8 °F /  18.8 °C 30.1in /  1019.0hPa NW 10.1mph /  16.3km/h 13mph /  20.9km/h 78% 0.06in /  1.5mm 84 W/m2
16:29 70 °F /  21.1 °C 64.2 °F /  17.9 °C 30.1in /  1018.6hPa SW 2.9mph /  4.7km/h 8mph /  12.9km/h 82% 0.12in /  3.0mm 88 W/m2
16:34 68.7 °F /  20.4 °C 64.4 °F /  18 °C 30.1in /  1018.6hPa WSW 2mph /  3.2km/h 4mph /  6.4km/h 86% 0.12in /  3.0mm 88 W/m2
16:39 68.2 °F /  20.1 °C 64.4 °F /  18 °C 30.1in /  1019.0hPa WSW 2mph /  3.2km/h 4mph /  6.4km/h 88% 0.12in /  3.0mm 81 W/m2
16:44 67.6 °F /  19.8 °C 64.6 °F /  18.1 °C 30.1in /  1019.0hPa West 2.9mph /  4.7km/h 4mph /  6.4km/h 90% 0.12in /  3.0mm 70 W/m2
16:49 67.5 °F /  19.7 °C 64.8 °F /  18.2 °C 30.1in /  1019.0hPa West 2mph /  3.2km/h 7mph /  11.3km/h 91% 0.12in /  3.0mm 51 W/m2
16:54 67.6 °F /  19.8 °C 64.9 °F /  18.3 °C 30.1in /  1018.6hPa West 0.9mph /  1.4km/h 4mph /  6.4km/h 91% 0.12in /  3.0mm 44 W/m2
16:59 67.6 °F /  19.8 °C 65.3 °F /  18.5 °C 30.1in /  1018.6hPa WSW 0.9mph /  1.4km/h 7mph /  11.3km/h 92% 0.12in /  3.0mm 39 W/m2
17:04 67.6 °F /  19.8 °C 65.3 °F /  18.5 °C 30.1in /  1018.6hPa WSW 2mph /  3.2km/h 2mph /  3.2km/h 92% 0.12in /  3.0mm 35 W/m2
17:09 67.3 °F /  19.6 °C 64.6 °F /  18.1 °C 30.1in /  1018.6hPa WNW 0.9mph /  1.4km/h 7mph /  11.3km/h 91% 0.13in /  3.3mm 39 W/m2
17:14 66.9 °F /  19.4 °C 63.9 °F /  17.7 °C 30.1in /  1018.6hPa West 2mph /  3.2km/h 5mph /  8km/h 90% 0.13in /  3.3mm 51 W/m2
17:19 66.7 °F /  19.3 °C 64 °F /  17.8 °C 30.1in /  1018.6hPa West 2mph /  3.2km/h 3mph /  4.8km/h 91% 0.11in /  2.8mm 81 W/m2
17:24 66.6 °F /  19.2 °C 63.9 °F /  17.7 °C 30.1in /  1018.6hPa NW 2.9mph /  4.7km/h 7mph /  11.3km/h 91% 0.06in /  1.5mm 118 W/m2
17:29 66.6 °F /  19.2 °C 63.9 °F /  17.7 °C 30.1in /  1018.3hPa WSW 2mph /  3.2km/h 3mph /  4.8km/h 91% 0.02in /  0.5mm 163 W/m2
17:34 66.6 °F /  19.2 °C 63.9 °F /  17.7 °C 30.1in /  1018.3hPa West 0.9mph /  1.4km/h 7mph /  11.3km/h 91% 0.02in /  0.5mm 206 W/m2
17:39 66.7 °F /  19.3 °C 64.4 °F /  18 °C 30.1in /  1018.3hPa WNW 2mph /  3.2km/h 2mph /  3.2km/h 92% 0.02in /  0.5mm 246 W/m2
17:44 66.9 °F /  19.4 °C 64.6 °F /  18.1 °C 30.1in /  1018.3hPa WSW 0.9mph /  1.4km/h 3mph /  4.8km/h 92% 0.02in /  0.5mm 260 W/m2
17:49 67.3 °F /  19.6 °C 65.1 °F /  18.4 °C 30.1in /  1018.3hPa WNW 0.9mph /  1.4km/h 2mph /  3.2km/h 93% 0.02in /  0.5mm 279 W/m2
17:54 67.6 °F /  19.8 °C 65.3 °F /  18.5 °C 30.1in /  1018.3hPa West 2mph /  3.2km/h 3mph /  4.8km/h 92% 0.02in /  0.5mm 336 W/m2
17:59 68.2 °F /  20.1 °C 66 °F /  18.9 °C 30.1in /  1018.3hPa WNW 2mph /  3.2km/h 3mph /  4.8km/h 93% 0.02in /  0.5mm 339 W/m2
18:04 68.5 °F /  20.3 °C 66.2 °F /  19 °C 30.1in /  1018.3hPa WNW 2mph /  3.2km/h 3mph /  4.8km/h 92% 0.02in /  0.5mm 253 W/m2
18:09 68.7 °F /  20.4 °C 66.4 °F /  19.1 °C 30.1in /  1018.3hPa West 0.9mph /  1.4km/h 1mph /  1.6km/h 92% 0.02in /  0.5mm 188 W/m2
18:14 69.1 °F /  20.6 °C 66.7 °F /  19.3 °C 30.1in /  1018.3hPa Calm   1mph /  1.6km/h 92% 0.02in /  0.5mm 163 W/m2
18:19 69.3 °F /  20.7 °C 66.9 °F /  19.4 °C 30.1in /  1018.3hPa Calm   1mph /  1.6km/h 92% 0.02in /  0.5mm 167 W/m2
18:24 69.4 °F /  20.8 °C 67.3 °F /  19.6 °C 30.1in /  1018.3hPa Calm   2mph /  3.2km/h 93% 0.02in /  0.5mm 179 W/m2
18:29 69.4 °F /  20.8 °C 66.7 °F /  19.3 °C 30.1in /  1018.3hPa WNW 2mph /  3.2km/h 2mph /  3.2km/h 91% 0.01in /  0.2mm 178 W/m2
18:34 69.6 °F /  20.9 °C 66.9 °F /  19.4 °C 30.1in /  1018.3hPa West 2mph /  3.2km/h 4mph /  6.4km/h 91% 0.01in /  0.2mm 193 W/m2
18:39 70 °F /  21.1 °C 67.3 °F /  19.6 °C 30.1in /  1018.3hPa West 0.9mph /  1.4km/h 2mph /  3.2km/h 91% 0in /  0.0mm 308 W/m2
18:44 70.2 °F /  21.2 °C 67.5 °F /  19.7 °C 30.1in /  1018.3hPa WSW 0.9mph /  1.4km/h 2mph /  3.2km/h 91% 0in /  0.0mm 183 W/m2
18:49 70.3 °F /  21.3 °C 67.6 °F /  19.8 °C 30.1in /  1018.3hPa Calm   1mph /  1.6km/h 91% 0in /  0.0mm 181 W/m2
18:54 70.5 °F /  21.4 °C 68 °F /  20 °C 30.1in /  1018.3hPa Calm   2mph /  3.2km/h 92% 0in /  0.0mm 209 W/m2
18:59 70.7 °F /  21.5 °C 68 °F /  20 °C 30.1in /  1018.3hPa Calm   3mph /  4.8km/h 91% 0in /  0.0mm 176 W/m2
19:04 70.9 °F /  21.6 °C 68.2 °F /  20.1 °C 30.1in /  1018.3hPa Calm   2mph /  3.2km/h 91% 0in /  0.0mm 179 W/m2
19:09 71.1 °F /  21.7 °C 68.4 °F /  20.2 °C 30.1in /  1018.3hPa Calm     91% 0in /  0.0mm 139 W/m2
19:14 71.1 °F /  21.7 °C 68.4 °F /  20.2 °C 30.1in /  1018.3hPa WSW 0.9mph /  1.4km/h 2mph /  3.2km/h 91% 0in /  0.0mm 116 W/m2
19:19 71.1 °F /  21.7 °C 68.4 °F /  20.2 °C 30.1in /  1018.3hPa WSW 0.9mph /  1.4km/h 2mph /  3.2km/h 91% 0in /  0.0mm 90 W/m2
19:24 70.9 °F /  21.6 °C 68.2 °F /  20.1 °C 30.1in /  1018.3hPa WSW 0.9mph /  1.4km/h 2mph /  3.2km/h 91% 0in /  0.0mm 83 W/m2
19:29 70.9 °F /  21.6 °C 68.2 °F /  20.1 °C 30.1in /  1018.3hPa Calm     91% 0in /  0.0mm 76 W/m2
19:34 70.5 °F /  21.4 °C 68 °F /  20 °C 30.1in /  1018.3hPa Calm   2mph /  3.2km/h 92% 0in /  0.0mm 70 W/m2
19:39 70.5 °F /  21.4 °C 67.8 °F /  19.9 °C 30.1in /  1018.3hPa Calm     91% 0in /  0.0mm 65 W/m2
19:44 70.3 °F /  21.3 °C 67.6 °F /  19.8 °C 30.1in /  1018.3hPa WSW 0.9mph /  1.4km/h 2mph /  3.2km/h 91% 0in /  0.0mm 63 W/m2
19:49 70 °F /  21.1 °C 67.3 °F /  19.6 °C 30.1in /  1018.3hPa Calm   1mph /  1.6km/h 91% 0in /  0.0mm 56 W/m2
19:54 69.6 °F /  20.9 °C 66.9 °F /  19.4 °C 30.1in /  1018.6hPa WSW 2mph /  3.2km/h 2mph /  3.2km/h 91% 0in /  0.0mm 53 W/m2
19:59 69.3 °F /  20.7 °C 66.6 °F /  19.2 °C 30.1in /  1018.3hPa WSW 0.9mph /  1.4km/h 2mph /  3.2km/h 91% 0in /  0.0mm 51 W/m2
20:04 68.9 °F /  20.5 °C 66.2 °F /  19 °C 30.1in /  1018.3hPa Calm     91% 0in /  0.0mm 47 W/m2
20:09 68.7 °F /  20.4 °C 66.4 °F /  19.1 °C 30.1in /  1018.3hPa Calm     92% 0in /  0.0mm 47 W/m2
20:14 68.5 °F /  20.3 °C 66.2 °F /  19 °C 30.1in /  1018.3hPa Calm     92% 0in /  0.0mm 49 W/m2
20:19 68.4 °F /  20.2 °C 66 °F /  18.9 °C 30.1in /  1018.3hPa Calm     92% 0in /  0.0mm 98 W/m2
20:24 68.4 °F /  20.2 °C 66 °F /  18.9 °C 30.1in /  1018.3hPa Calm   1mph /  1.6km/h 92% 0in /  0.0mm 120 W/m2
20:29 68.5 °F /  20.3 °C 66.4 °F /  19.1 °C 30.1in /  1018.3hPa WSW 0.9mph /  1.4km/h 1mph /  1.6km/h 93% 0in /  0.0mm 58 W/m2
20:34 68.5 °F /  20.3 °C 66.4 °F /  19.1 °C 30.1in /  1018.3hPa Calm     93% 0in /  0.0mm 42 W/m2
20:39 68.5 °F /  20.3 °C 66.4 °F /  19.1 °C 30.1in /  1018.0hPa Calm   1mph /  1.6km/h 93% 0in /  0.0mm 39 W/m2
20:44 68.5 °F /  20.3 °C 66.4 °F /  19.1 °C 30.1in /  1018.3hPa Calm     93% 0in /  0.0mm 39 W/m2
20:49 68.5 °F /  20.3 °C 66.4 °F /  19.1 °C 30.1in /  1018.3hPa Calm     93% 0in /  0.0mm 33 W/m2
20:54 68.4 °F /  20.2 °C 66.2 °F /  19 °C 30.1in /  1018.3hPa Calm     93% 0in /  0.0mm 32 W/m2
20:59 68.4 °F /  20.2 °C 66.2 °F /  19 °C 30.1in /  1018.3hPa WSW 0.9mph /  1.4km/h 2mph /  3.2km/h 93% 0in /  0.0mm 28 W/m2
21:04 68.2 °F /  20.1 °C 66.4 °F /  19.1 °C 30.1in /  1018.3hPa Calm     94% 0in /  0.0mm 23 W/m2
21:09 68.2 °F /  20.1 °C 66.4 °F /  19.1 °C 30.1in /  1018.3hPa Calm     94% 0in /  0.0mm 18 W/m2
21:14 68.2 °F /  20.1 °C 66.4 °F /  19.1 °C 30.1in /  1018.3hPa Calm     94% 0in /  0.0mm 12 W/m2
21:19 68 °F /  20 °C 66.2 °F /  19 °C 30.1in /  1018.3hPa Calm     94% 0in /  0.0mm 11 W/m2
21:24 67.8 °F /  19.9 °C 66 °F /  18.9 °C 30.1in /  1018.3hPa Calm     94% 0in /  0.0mm 7 W/m2
21:29 67.8 °F /  19.9 °C 66 °F /  18.9 °C 30.1in /  1018.6hPa Calm     94% 0in /  0.0mm 5 W/m2
21:34 67.6 °F /  19.8 °C 65.8 °F /  18.8 °C 30.1in /  1018.6hPa Calm     94% 0in /  0.0mm 0 W/m2
21:39 67.5 °F /  19.7 °C 65.7 °F /  18.7 °C 30.1in /  1018.6hPa Calm     94% 0in /  0.0mm 0 W/m2
21:44 67.5 °F /  19.7 °C 65.7 °F /  18.7 °C 30.1in /  1018.6hPa Calm     94% 0in /  0.0mm 0 W/m2
21:49 67.3 °F /  19.6 °C 65.5 °F /  18.6 °C 30.1in /  1019.0hPa Calm     94% 0in /  0.0mm 0 W/m2
21:54 67.3 °F /  19.6 °C 65.5 °F /  18.6 °C 30.1in /  1019.0hPa Calm     94% 0in /  0.0mm 0 W/m2
21:59 66.9 °F /  19.4 °C 65.1 °F /  18.4 °C 30.1in /  1019.0hPa Calm     94% 0in /  0.0mm 0 W/m2
22:04 66.7 °F /  19.3 °C 64.9 °F /  18.3 °C 30.1in /  1019.0hPa Calm     94% 0in /  0.0mm 0 W/m2
22:09 66.7 °F /  19.3 °C 64.9 °F /  18.3 °C 30.1in /  1019.0hPa Calm     94% 0in /  0.0mm 0 W/m2
22:14 66.6 °F /  19.2 °C 64.8 °F /  18.2 °C 30.1in /  1019.0hPa Calm     94% 0in /  0.0mm 0 W/m2
22:19 66.4 °F /  19.1 °C 64.6 °F /  18.1 °C 30.1in /  1019.0hPa Calm     94% 0in /  0.0mm 0 W/m2
22:24 66 °F /  18.9 °C 64.6 °F /  18.1 °C 30.1in /  1019.0hPa Calm     95% 0in /  0.0mm 0 W/m2
22:29 66 °F /  18.9 °C 64.2 °F /  17.9 °C 30.1in /  1019.0hPa Calm     94% 0in /  0.0mm 0 W/m2
22:34 65.8 °F /  18.8 °C 64.4 °F /  18 °C 30.1in /  1019.0hPa Calm     95% 0in /  0.0mm 0 W/m2
22:39 65.7 °F /  18.7 °C 64.2 °F /  17.9 °C 30.1in /  1019.0hPa Calm     95% 0in /  0.0mm 0 W/m2
22:44 65.7 °F /  18.7 °C 64.2 °F /  17.9 °C 30.1in /  1019.0hPa Calm     95% 0in /  0.0mm 0 W/m2
22:49 65.5 °F /  18.6 °C 64 °F /  17.8 °C 30.1in /  1019.0hPa Calm     95% 0in /  0.0mm 0 W/m2
22:54 65.3 °F /  18.5 °C 63.9 °F /  17.7 °C 30.1in /  1019.3hPa Calm     95% 0in /  0.0mm 0 W/m2
22:59 65.1 °F /  18.4 °C 63.7 °F /  17.6 °C 30.1in /  1019.3hPa Calm     95% 0in /  0.0mm 0 W/m2
23:04 64.9 °F /  18.3 °C 63.5 °F /  17.5 °C 30.1in /  1019.3hPa Calm     95% 0in /  0.0mm 0 W/m2
23:09 64.9 °F /  18.3 °C 63.5 °F /  17.5 °C 30.1in /  1019.3hPa Calm     95% 0in /  0.0mm 0 W/m2
23:14 64.8 °F /  18.2 °C 63.3 °F /  17.4 °C 30.1in /  1019.3hPa Calm     95% 0in /  0.0mm 0 W/m2
23:19 64.6 °F /  18.1 °C 63.1 °F /  17.3 °C 30.1in /  1019.3hPa Calm     95% 0in /  0.0mm 0 W/m2
23:24 64.6 °F /  18.1 °C 63.1 °F /  17.3 °C 30.1in /  1019.3hPa WSW 2mph /  3.2km/h 2mph /  3.2km/h 95% 0in /  0.0mm 0 W/m2
23:29 64.6 °F /  18.1 °C 63.1 °F /  17.3 °C 30.1in /  1019.3hPa Calm   1mph /  1.6km/h 95% 0in /  0.0mm 0 W/m2
23:34 64.4 °F /  18 °C 63 °F /  17.2 °C 30.1in /  1019.3hPa Calm     95% 0in /  0.0mm 0 W/m2
23:39 64.2 °F /  17.9 °C 62.8 °F /  17.1 °C 30.1in /  1019.0hPa Calm     95% 0in /  0.0mm 0 W/m2
23:44 64.2 °F /  17.9 °C 62.8 °F /  17.1 °C 30.1in /  1019.0hPa Calm     95% 0in /  0.0mm 0 W/m2
23:49 64 °F /  17.8 °C 62.6 °F /  17 °C 30.1in /  1019.3hPa Calm   1mph /  1.6km/h 95% 0in /  0.0mm 0 W/m2
23:54 64 °F /  17.8 °C 63 °F /  17.2 °C 30.1in /  1019.0hPa Calm     96% 0in /  0.0mm 0 W/m2
23:59 64 °F /  17.8 °C 63 °F /  17.2 °C 30.1in /  1019.3hPa Calm     96% 0in /  0.0mm 0 W/m2
Juneau County Weather
Compliments of Weather Underground - 2 mb